createdAt,value
2019-03-10T00:00:50.711Z,70.99
2019-03-10T00:03:37.056Z,70.67
2019-03-10T00:06:23.563Z,70.96
2019-03-10T00:09:10.363Z,70.94
2019-03-10T00:11:56.331Z,70.74
2019-03-10T00:14:42.290Z,70.65
2019-03-10T00:17:29.035Z,70.58
2019-03-10T00:20:15.051Z,70.22
2019-03-10T00:23:01.227Z,70.33
2019-03-10T00:25:48.071Z,70.72
2019-03-10T00:28:34.556Z,70.58
2019-03-10T00:31:20.562Z,70.58
2019-03-10T00:34:07.394Z,70.90
2019-03-10T00:36:53.812Z,70.11
2019-03-10T00:40:08.043Z,70.39
2019-03-10T00:43:31.091Z,70.91
2019-03-10T00:46:51.688Z,70.72
2019-03-10T00:50:19.902Z,70.64
2019-03-10T00:53:06.398Z,70.76
2019-03-10T00:55:53.319Z,70.71
2019-03-10T00:58:54.369Z,70.61
2019-03-10T01:01:47.847Z,70.79
2019-03-10T01:04:34.748Z,70.43
2019-03-10T01:07:20.895Z,70.65
2019-03-10T01:10:08.076Z,70.76
2019-03-10T01:12:55.512Z,71.17
2019-03-10T01:15:44.634Z,71.21
2019-03-10T01:18:36.512Z,71.24
2019-03-10T01:21:23.092Z,70.55
2019-03-10T01:24:09.040Z,71.22
2019-03-10T01:26:55.413Z,71.22
2019-03-10T01:29:41.440Z,70.59
2019-03-10T01:33:21.817Z,70.33
2019-03-10T01:36:15.618Z,70.26
2019-03-10T01:39:01.655Z,70.47
2019-03-10T01:41:48.484Z,69.98
2019-03-10T01:44:34.627Z,69.96
2019-03-10T01:47:20.912Z,70.16
2019-03-10T01:50:09.019Z,69.97
2019-03-10T01:52:55.324Z,69.96
2019-03-10T01:55:41.532Z,69.95
2019-03-10T01:58:28.798Z,70.27
2019-03-10T02:01:15.479Z,70.27
2019-03-10T02:04:01.840Z,70.08
2019-03-10T02:06:48.959Z,69.73
2019-03-10T02:09:35.055Z,69.91
2019-03-10T02:12:21.359Z,69.75
2019-03-10T02:15:09.733Z,69.82
2019-03-10T02:17:59.166Z,70.16
2019-03-10T02:20:45.835Z,70.17
2019-03-10T02:23:33.264Z,70.07
2019-03-10T02:26:19.448Z,70.33
2019-03-10T02:29:05.466Z,70.26
2019-03-10T02:31:52.631Z,70.02
2019-03-10T02:34:39.181Z,69.94
2019-03-10T02:37:25.373Z,70.53
2019-03-10T02:40:12.688Z,70.37
2019-03-10T02:42:59.068Z,70.44
2019-03-10T02:45:45.407Z,70.67
2019-03-10T02:48:33.073Z,70.75
2019-03-10T02:51:19.632Z,70.37
2019-03-10T02:54:06.000Z,70.79
2019-03-10T02:56:52.404Z,70.76
2019-03-10T02:59:38.314Z,70.67
2019-03-10T03:02:24.262Z,71.04
2019-03-10T03:05:10.814Z,71.19
2019-03-10T03:07:57.092Z,70.93
2019-03-10T03:10:43.135Z,71.12
2019-03-10T03:13:30.245Z,71.21
2019-03-10T03:16:16.251Z,71.23
2019-03-10T03:19:02.220Z,71.97
2019-03-10T03:21:49.108Z,72.38
2019-03-10T03:24:35.465Z,72.09
2019-03-10T03:27:21.397Z,72.68
2019-03-10T03:30:09.446Z,73.86
2019-03-10T03:32:55.629Z,74.54
2019-03-10T03:35:56.728Z,74.83
2019-03-10T03:38:46.598Z,74.95
2019-03-10T03:41:32.968Z,75.31
2019-03-10T03:44:18.969Z,75.55
2019-03-10T03:47:05.986Z,76.05
2019-03-10T03:49:51.953Z,76.75
2019-03-10T03:52:38.006Z,76.30
2019-03-10T03:55:24.858Z,77.43
2019-03-10T03:58:12.003Z,77.97
2019-03-10T04:01:03.873Z,77.76
2019-03-10T04:03:50.708Z,78.36
2019-03-10T04:06:37.316Z,78.85
2019-03-10T04:09:23.188Z,79.62
2019-03-10T04:12:10.254Z,80.36
2019-03-10T04:14:56.839Z,79.94
2019-03-10T04:17:42.609Z,80.10
2019-03-10T04:20:29.589Z,81.03
2019-03-10T04:23:16.114Z,81.01
2019-03-10T04:26:02.478Z,82.16
2019-03-10T04:28:49.289Z,82.14
2019-03-10T04:31:35.706Z,82.27
2019-03-10T04:34:22.084Z,82.76
2019-03-10T04:37:09.439Z,83.08
2019-03-10T04:39:55.946Z,82.97
2019-03-10T04:42:42.128Z,82.94
2019-03-10T04:45:28.897Z,83.28
2019-03-10T04:48:15.135Z,83.74
2019-03-10T04:51:01.592Z,84.18
2019-03-10T04:53:48.620Z,84.41
2019-03-10T04:56:49.713Z,84.93
2019-03-10T04:59:35.809Z,85.47
2019-03-10T05:02:22.714Z,85.81
2019-03-10T05:05:09.371Z,86.60
2019-03-10T05:07:55.303Z,87.00
2019-03-10T05:10:42.000Z,86.72
2019-03-10T05:13:27.917Z,86.45
2019-03-10T05:16:14.012Z,87.03
2019-03-10T05:19:00.808Z,87.59
2019-03-10T05:21:47.225Z,87.58
2019-03-10T05:24:33.663Z,87.21
2019-03-10T05:27:20.357Z,87.72
2019-03-10T05:30:06.903Z,87.90
2019-03-10T05:32:53.171Z,87.83
2019-03-10T05:35:39.917Z,88.38
2019-03-10T05:38:26.528Z,88.52
2019-03-10T05:41:12.875Z,88.11
2019-03-10T05:43:59.441Z,88.25
2019-03-10T05:46:45.632Z,88.43
2019-03-10T05:49:31.741Z,88.66
2019-03-10T05:52:18.854Z,88.21
2019-03-10T05:55:05.514Z,88.71
2019-03-10T05:57:51.611Z,89.66
2019-03-10T06:00:43.077Z,90.05
2019-03-10T06:03:26.786Z,90.00
2019-03-10T06:06:13.453Z,89.56
2019-03-10T06:09:00.025Z,89.80
2019-03-10T06:11:46.456Z,89.71
2019-03-10T06:14:32.781Z,90.19
2019-03-10T06:17:21.357Z,89.60
2019-03-10T06:20:07.494Z,90.11
2019-03-10T06:22:54.056Z,90.94
2019-03-10T06:25:40.341Z,91.40
2019-03-10T06:28:26.549Z,91.35
2019-03-10T06:31:12.717Z,91.88
2019-03-10T06:33:59.705Z,91.73
2019-03-10T06:36:45.757Z,92.27
2019-03-10T06:39:41.421Z,92.16
2019-03-10T06:42:48.887Z,92.02
2019-03-10T06:45:35.397Z,92.04
2019-03-10T06:48:22.068Z,91.49
2019-03-10T06:51:08.468Z,91.28
2019-03-10T06:53:54.689Z,91.98
2019-03-10T06:56:41.686Z,92.57
2019-03-10T06:59:28.162Z,92.63
2019-03-10T07:02:22.094Z,92.74
2019-03-10T07:05:20.509Z,92.88
2019-03-10T07:08:15.622Z,93.08
2019-03-10T07:11:01.720Z,93.31
2019-03-10T07:13:48.086Z,93.19
2019-03-10T07:16:34.946Z,93.19
2019-03-10T07:19:21.406Z,93.17
2019-03-10T07:22:07.612Z,93.25
2019-03-10T07:24:54.344Z,93.21
2019-03-10T07:27:55.289Z,93.54
2019-03-10T07:31:11.821Z,93.81
2019-03-10T07:34:29.409Z,93.84
2019-03-10T07:37:25.434Z,94.02
2019-03-10T07:40:36.718Z,93.76
2019-03-10T07:43:41.168Z,93.02
2019-03-10T07:46:52.587Z,93.65
2019-03-10T07:49:59.033Z,93.58
2019-03-10T07:53:10.122Z,92.59
2019-03-10T07:56:19.594Z,91.84
2019-03-10T07:59:33.593Z,91.13
2019-03-10T08:02:39.994Z,90.84
2019-03-10T08:05:51.695Z,90.90
2019-03-10T08:08:51.242Z,91.26
2019-03-10T08:11:47.114Z,91.74
2019-03-10T08:14:41.386Z,92.00
2019-03-10T08:17:40.093Z,92.31
2019-03-10T08:20:35.060Z,92.29
2019-03-10T08:23:43.327Z,92.32
2019-03-10T08:26:49.582Z,91.55
2019-03-10T08:30:00.906Z,92.62
2019-03-10T08:33:07.788Z,93.08
2019-03-10T08:36:09.105Z,93.51
2019-03-10T08:39:15.406Z,93.40
2019-03-10T08:42:39.578Z,93.08
2019-03-10T08:45:48.486Z,92.64
2019-03-10T08:48:41.954Z,92.62
2019-03-10T08:51:54.018Z,92.72
2019-03-10T08:54:49.510Z,92.77
2019-03-10T08:58:04.487Z,92.70
2019-03-10T09:01:16.246Z,92.67
2019-03-10T09:04:15.420Z,93.11
2019-03-10T09:07:29.721Z,93.12
2019-03-10T09:10:36.850Z,93.13
2019-03-10T09:13:54.674Z,93.30
2019-03-10T09:17:12.534Z,93.51
2019-03-10T09:20:10.446Z,93.36
2019-03-10T09:23:04.166Z,93.41
2019-03-10T09:26:00.390Z,92.79
2019-03-10T09:29:00.522Z,92.81
2019-03-10T09:32:15.111Z,92.76
2019-03-10T09:35:09.193Z,93.04
2019-03-10T09:38:04.276Z,93.04
2019-03-10T09:41:01.283Z,93.27
2019-03-10T09:44:10.078Z,93.17
2019-03-10T09:47:05.471Z,93.40
2019-03-10T09:50:10.849Z,92.91
2019-03-10T09:53:28.508Z,92.79
2019-03-10T09:56:36.591Z,92.63
2019-03-10T09:59:51.152Z,92.51
2019-03-10T10:03:11.982Z,92.45
2019-03-10T10:06:22.943Z,92.97
2019-03-10T10:09:31.823Z,92.29
2019-03-10T10:12:37.003Z,92.85
2019-03-10T10:15:42.871Z,92.78
2019-03-10T10:18:48.963Z,92.85
2019-03-10T10:22:06.483Z,93.27
2019-03-10T10:25:18.974Z,92.92
2019-03-10T10:28:23.055Z,93.13
2019-03-10T10:31:27.759Z,93.14
2019-03-10T10:34:19.335Z,92.93
2019-03-10T10:37:27.821Z,92.71
2019-03-10T10:40:39.310Z,92.74
2019-03-10T10:43:44.101Z,92.90
2019-03-10T10:46:55.574Z,93.00
2019-03-10T10:49:52.963Z,92.92
2019-03-10T10:53:01.395Z,92.38
2019-03-10T10:56:22.220Z,91.97
2019-03-10T10:59:33.858Z,91.41
2019-03-10T11:02:41.075Z,91.41
2019-03-10T11:05:46.609Z,91.24
2019-03-10T11:08:44.194Z,90.92
2019-03-10T11:11:48.377Z,91.31
2019-03-10T11:14:45.176Z,91.63
2019-03-10T11:17:49.447Z,91.34
2019-03-10T11:20:45.444Z,90.63
2019-03-10T11:24:09.120Z,90.78
2019-03-10T11:27:00.735Z,88.64
2019-03-10T11:29:52.630Z,90.48
2019-03-10T11:32:55.939Z,91.60
2019-03-10T11:36:19.898Z,92.40
2019-03-10T11:39:27.396Z,91.31
2019-03-10T11:42:37.368Z,91.25
2019-03-10T11:45:43.703Z,88.42
2019-03-10T11:48:52.311Z,88.91
2019-03-10T11:52:00.485Z,90.22
2019-03-10T11:54:56.764Z,89.42
2019-03-10T11:57:51.497Z,90.20
2019-03-10T12:00:56.346Z,89.34
2019-03-10T12:03:52.633Z,89.37
2019-03-10T12:06:47.116Z,89.32
2019-03-10T12:09:33.325Z,89.60
2019-03-10T12:12:19.771Z,89.25
2019-03-10T12:15:07.062Z,89.01
2019-03-10T12:17:53.267Z,88.47
2019-03-10T12:20:40.281Z,87.01
2019-03-10T12:23:26.445Z,84.57
2019-03-10T12:26:12.974Z,83.36
2019-03-10T12:28:59.714Z,83.22
2019-03-10T12:31:45.751Z,82.24
2019-03-10T12:34:31.786Z,81.56
2019-03-10T12:37:20.140Z,84.18
2019-03-10T12:40:07.342Z,82.94
2019-03-10T12:42:55.645Z,81.47
2019-03-10T12:45:42.062Z,81.85
2019-03-10T12:48:28.389Z,84.95
2019-03-10T12:51:14.455Z,86.25
2019-03-10T12:54:00.934Z,85.99
2019-03-10T12:56:46.886Z,86.79
2019-03-10T12:59:40.732Z,87.45
2019-03-10T13:02:27.536Z,88.33
2019-03-10T13:05:14.235Z,87.92
2019-03-10T13:08:02.174Z,86.91
2019-03-10T13:10:49.070Z,85.67
2019-03-10T13:13:35.594Z,84.80
2019-03-10T13:16:22.505Z,84.69
2019-03-10T13:22:38.766Z,85.34
2019-03-10T13:25:26.700Z,85.77
2019-03-10T13:28:13.090Z,85.37
2019-03-10T13:30:59.969Z,84.79
2019-03-10T13:33:46.665Z,84.78
2019-03-10T13:36:33.043Z,84.51
2019-03-10T13:39:21.078Z,84.53
2019-03-10T13:42:07.840Z,84.32
2019-03-10T13:44:54.492Z,84.54
2019-03-10T13:47:40.493Z,84.41
2019-03-10T13:50:27.326Z,83.82
2019-03-10T13:53:13.428Z,84.17
2019-03-10T13:56:01.565Z,83.79
2019-03-10T13:58:48.465Z,85.16
2019-03-10T14:01:35.360Z,86.42
2019-03-10T14:04:21.162Z,88.29
2019-03-10T14:07:09.021Z,89.26
2019-03-10T14:09:55.437Z,90.29
2019-03-10T14:12:41.381Z,90.31
2019-03-10T14:15:28.217Z,89.65
2019-03-10T14:18:14.541Z,88.48
2019-03-10T14:21:05.701Z,87.77
2019-03-10T14:23:52.642Z,85.42
2019-03-10T14:26:39.050Z,84.37
2019-03-10T14:29:25.316Z,83.61
2019-03-10T14:32:11.645Z,79.27
2019-03-10T14:34:59.053Z,75.43
2019-03-10T14:37:44.942Z,73.22
2019-03-10T14:40:31.509Z,74.22
2019-03-10T14:43:17.772Z,74.07
2019-03-10T14:46:04.415Z,74.06
2019-03-10T14:48:50.717Z,73.62
2019-03-10T14:51:37.168Z,74.53
2019-03-10T14:54:23.057Z,76.06
2019-03-10T14:57:09.514Z,76.34
2019-03-10T14:59:55.322Z,75.98
2019-03-10T15:02:41.269Z,74.41
2019-03-10T15:05:31.146Z,75.16
2019-03-10T15:08:20.581Z,74.47
2019-03-10T15:11:06.969Z,73.53
2019-03-10T15:13:53.528Z,73.90
2019-03-10T15:16:41.637Z,74.10
2019-03-10T15:19:31.069Z,73.75
2019-03-10T15:22:18.739Z,73.67
2019-03-10T15:25:06.384Z,73.68
2019-03-10T15:27:53.574Z,73.93
2019-03-10T15:30:40.325Z,74.31
2019-03-10T15:33:27.399Z,73.42
2019-03-10T15:36:20.325Z,73.68
2019-03-10T15:39:03.554Z,74.06
2019-03-10T15:41:50.209Z,73.54
2019-03-10T15:44:38.773Z,73.89
2019-03-10T15:47:25.334Z,73.25
2019-03-10T15:50:17.404Z,73.02
2019-03-10T15:53:03.994Z,73.62
2019-03-10T15:55:51.461Z,73.62
2019-03-10T15:58:38.252Z,74.14
2019-03-10T16:01:24.606Z,74.20
2019-03-10T16:04:19.168Z,74.58
2019-03-10T16:07:05.622Z,74.76
2019-03-10T16:09:52.003Z,75.00
2019-03-10T16:12:39.070Z,75.28
2019-03-10T16:15:26.057Z,75.92
2019-03-10T16:18:13.510Z,75.97
2019-03-10T16:21:00.326Z,76.15
2019-03-10T16:23:46.670Z,76.23
2019-03-10T16:26:32.746Z,76.97
2019-03-10T16:29:19.230Z,78.10
2019-03-10T16:32:05.134Z,76.54
2019-03-10T16:34:51.419Z,77.30
2019-03-10T16:37:40.579Z,80.92
2019-03-10T16:40:27.906Z,84.39
2019-03-10T16:43:14.401Z,86.49
2019-03-10T16:46:01.223Z,86.64
2019-03-10T16:48:47.310Z,87.67
2019-03-10T16:51:34.953Z,88.57
2019-03-10T16:54:21.357Z,89.16
2019-03-10T16:57:09.720Z,89.38
2019-03-10T16:59:56.674Z,90.04
2019-03-10T17:02:43.977Z,90.16
2019-03-10T17:05:30.578Z,90.42
2019-03-10T17:08:17.048Z,90.71
2019-03-10T17:11:03.550Z,90.71
2019-03-10T17:13:49.966Z,91.07
2019-03-10T17:16:36.790Z,91.22
2019-03-10T17:19:22.678Z,91.71
2019-03-10T17:22:08.722Z,91.71
2019-03-10T17:24:57.406Z,91.63
2019-03-10T17:27:43.617Z,91.85
2019-03-10T17:30:32.250Z,91.97
2019-03-10T17:33:19.107Z,91.97
2019-03-10T17:36:05.423Z,91.90
2019-03-10T17:38:52.030Z,91.90
2019-03-10T17:41:38.322Z,92.07
2019-03-10T17:44:25.383Z,91.93
2019-03-10T17:47:16.015Z,91.97
2019-03-10T17:50:02.962Z,92.19
2019-03-10T17:52:49.777Z,92.19
2019-03-10T17:55:38.755Z,92.18
2019-03-10T17:58:25.659Z,92.17
2019-03-10T18:01:11.634Z,92.62
2019-03-10T18:03:58.040Z,92.44
2019-03-10T18:06:50.724Z,92.49
2019-03-10T18:10:01.904Z,92.57
2019-03-10T18:12:48.375Z,92.57
2019-03-10T18:15:35.027Z,93.10
2019-03-10T18:18:21.179Z,93.10
2019-03-10T18:21:07.090Z,92.84
2019-03-10T18:23:53.922Z,93.08
2019-03-10T18:26:40.405Z,92.67
2019-03-10T18:29:26.507Z,92.98
2019-03-10T18:32:13.098Z,92.98
2019-03-10T18:34:59.157Z,92.70
2019-03-10T18:37:45.591Z,92.65
2019-03-10T18:40:31.997Z,92.90
2019-03-10T18:43:18.317Z,92.75
2019-03-10T18:46:05.554Z,92.74
2019-03-10T18:48:52.455Z,93.06
2019-03-10T18:51:38.971Z,92.52
2019-03-10T18:54:25.037Z,92.52
2019-03-10T18:57:10.902Z,92.40
2019-03-10T19:00:00.054Z,92.40
2019-03-10T19:02:47.591Z,92.69
2019-03-10T19:05:34.306Z,92.52
2019-03-10T19:08:20.406Z,92.49
2019-03-10T19:11:07.186Z,92.40
2019-03-10T19:13:55.553Z,92.73
2019-03-10T19:16:42.198Z,92.23
2019-03-10T19:19:28.642Z,92.52
2019-03-10T19:22:16.446Z,92.80
2019-03-10T19:25:02.394Z,92.80
2019-03-10T19:27:48.735Z,92.83
2019-03-10T19:30:34.942Z,92.41
2019-03-10T19:33:20.762Z,92.49
2019-03-10T19:36:07.403Z,92.55
2019-03-10T19:38:53.892Z,92.73
2019-03-10T19:41:40.082Z,92.45
2019-03-10T19:44:26.607Z,92.61
2019-03-10T19:47:13.273Z,92.95
2019-03-10T19:49:59.688Z,92.95
2019-03-10T19:52:46.018Z,92.58
2019-03-10T19:55:34.698Z,92.51
2019-03-10T19:58:21.000Z,92.21
2019-03-10T20:01:06.807Z,92.30
2019-03-10T20:03:53.354Z,92.38
2019-03-10T20:06:43.154Z,92.36
2019-03-10T20:09:29.592Z,92.42
2019-03-10T20:12:15.487Z,92.52
2019-03-10T20:21:07.088Z,92.75
2019-03-10T20:23:52.785Z,92.43
2019-03-10T20:26:39.321Z,92.12
2019-03-10T20:29:25.261Z,91.80
2019-03-10T20:32:14.083Z,91.71
2019-03-10T20:34:59.650Z,91.82
2019-03-10T20:37:45.569Z,91.49
2019-03-10T20:40:31.619Z,91.40
2019-03-10T20:43:18.659Z,91.63
2019-03-10T20:46:04.814Z,91.33
2019-03-10T20:48:52.572Z,90.74
2019-03-10T20:51:39.236Z,90.43
2019-03-10T20:54:27.257Z,90.38
2019-03-10T20:57:13.308Z,90.40
2019-03-10T21:00:00.725Z,90.30
2019-03-10T21:02:53.216Z,90.34
2019-03-10T21:05:39.821Z,90.31
2019-03-10T21:08:26.146Z,90.05
2019-03-10T21:11:12.546Z,89.92
2019-03-10T21:13:58.689Z,89.98
2019-03-10T21:16:45.274Z,89.86
2019-03-10T21:19:31.200Z,89.63
2019-03-10T21:22:17.424Z,89.54
2019-03-10T21:25:04.913Z,89.56
2019-03-10T21:27:51.072Z,89.62
2019-03-10T21:31:40.785Z,89.70
2019-03-10T21:37:23.969Z,89.68
2019-03-10T21:40:12.845Z,89.40
2019-03-10T21:42:59.212Z,89.19
2019-03-10T21:45:45.336Z,89.15
2019-03-10T21:48:31.591Z,89.10
2019-03-10T21:51:20.409Z,88.96
2019-03-10T21:54:06.473Z,88.68
2019-03-10T21:56:52.791Z,88.77
2019-03-10T21:59:39.069Z,88.71
2019-03-10T22:02:27.066Z,88.39
2019-03-10T22:05:13.229Z,88.28
2019-03-10T22:07:59.702Z,88.37
2019-03-10T22:10:48.185Z,88.24
2019-03-10T22:13:34.266Z,88.33
2019-03-10T22:16:20.516Z,87.94
2019-03-10T22:19:06.735Z,87.87
2019-03-10T22:21:52.744Z,88.13
2019-03-10T22:24:41.717Z,88.30
2019-03-10T22:27:28.290Z,88.12
2019-03-10T22:30:15.345Z,87.61
2019-03-10T22:33:01.847Z,87.47
2019-03-10T22:35:47.897Z,87.70
2019-03-10T22:38:33.914Z,87.35
2019-03-10T22:41:24.061Z,87.17
2019-03-10T22:44:13.252Z,86.94
2019-03-10T22:46:59.329Z,87.34
2019-03-10T22:49:45.832Z,86.93
2019-03-10T22:52:31.806Z,87.72
2019-03-10T22:55:17.997Z,87.60
2019-03-10T22:58:04.350Z,87.60
2019-03-10T23:00:52.158Z,87.62
2019-03-10T23:03:38.218Z,88.29
2019-03-10T23:06:24.637Z,87.51
2019-03-10T23:09:10.777Z,87.51
2019-03-10T23:11:56.566Z,87.09
2019-03-10T23:14:42.802Z,86.54
2019-03-10T23:17:29.918Z,86.77
2019-03-10T23:20:19.276Z,86.90
2019-03-10T23:23:05.817Z,86.51
2019-03-10T23:25:51.876Z,86.76
2019-03-10T23:28:37.850Z,86.75
2019-03-10T23:31:25.864Z,86.70
2019-03-10T23:34:11.990Z,86.70
2019-03-10T23:36:58.040Z,86.73
2019-03-10T23:39:44.135Z,86.50
2019-03-10T23:42:30.169Z,86.50
2019-03-10T23:45:18.029Z,86.71
2019-03-10T23:48:04.444Z,86.29
2019-03-10T23:50:50.729Z,86.29
2019-03-10T23:53:36.950Z,85.52
2019-03-10T23:56:23.299Z,85.52
2019-03-10T23:59:09.215Z,85.47
